createdAt,value
2023-03-20T00:00:50.805Z,1020.24
2023-03-20T00:01:50.833Z,1020.2
2023-03-20T00:02:50.810Z,1020.17
2023-03-20T00:03:50.857Z,1020.21
2023-03-20T00:04:50.996Z,1020.17
2023-03-20T00:05:50.804Z,1020.17
2023-03-20T00:06:50.846Z,1020.2
2023-03-20T00:07:50.798Z,1020.2
2023-03-20T00:08:50.852Z,1020.2
2023-03-20T00:09:50.846Z,1020.24
2023-03-20T00:10:50.804Z,1020.22
2023-03-20T00:11:50.836Z,1020.22
2023-03-20T00:12:50.813Z,1020.23
2023-03-20T00:13:50.816Z,1020.21
2023-03-20T00:14:50.814Z,1020.18
2023-03-20T00:15:50.862Z,1020.2
2023-03-20T00:16:50.825Z,1020.26
2023-03-20T00:17:50.807Z,1020.22
2023-03-20T00:18:50.801Z,1020.24
2023-03-20T00:19:50.811Z,1020.24
2023-03-20T00:20:50.823Z,1020.23
2023-03-20T00:21:50.847Z,1020.25
2023-03-20T00:22:50.810Z,1020.24
2023-03-20T00:23:50.813Z,1020.23
2023-03-20T00:24:50.811Z,1020.22
2023-03-20T00:25:50.809Z,1020.25
2023-03-20T00:26:50.828Z,1020.24
2023-03-20T00:27:50.804Z,1020.22
2023-03-20T00:28:50.813Z,1020.19
2023-03-20T00:29:50.817Z,1020.23
2023-03-20T00:30:50.809Z,1020.23
2023-03-20T00:31:50.903Z,1020.25
2023-03-20T00:32:50.864Z,1020.21
2023-03-20T00:33:50.805Z,1020.2
2023-03-20T00:34:50.813Z,1020.22
2023-03-20T00:35:50.837Z,1020.2
2023-03-20T00:36:50.823Z,1020.24
2023-03-20T00:37:50.822Z,1020.24
2023-03-20T00:38:50.804Z,1020.23
2023-03-20T00:39:50.813Z,1020.25
2023-03-20T00:40:50.811Z,1020.24
2023-03-20T00:41:50.838Z,1020.25
2023-03-20T00:42:50.807Z,1020.22
2023-03-20T00:43:50.809Z,1020.24
2023-03-20T00:44:50.802Z,1020.23
2023-03-20T00:45:50.810Z,1020.25
2023-03-20T00:46:51.107Z,1020.27
2023-03-20T00:47:50.806Z,1020.23
2023-03-20T00:48:50.813Z,1020.23
2023-03-20T00:49:50.869Z,1020.22
2023-03-20T00:50:50.817Z,1020.2
2023-03-20T00:51:50.830Z,1020.2
2023-03-20T00:52:50.809Z,1020.17
2023-03-20T00:53:50.805Z,1020.16
2023-03-20T00:54:50.815Z,1020.17
2023-03-20T00:55:50.817Z,1020.18
2023-03-20T00:56:50.832Z,1020.16
2023-03-20T00:57:50.796Z,1020.17
2023-03-20T00:58:50.807Z,1020.15
2023-03-20T00:59:50.810Z,1020.18
2023-03-20T01:00:50.888Z,1020.2
2023-03-20T01:01:50.858Z,1020.21
2023-03-20T01:02:50.806Z,1020.21
2023-03-20T01:03:50.814Z,1020.18
2023-03-20T01:04:50.801Z,1020.16
2023-03-20T01:05:50.799Z,1020.14
2023-03-20T01:06:50.835Z,1020.19
2023-03-20T01:07:50.800Z,1020.19
2023-03-20T01:08:50.803Z,1020.12
2023-03-20T01:09:50.805Z,1020.12
2023-03-20T01:10:50.813Z,1020.08
2023-03-20T01:11:51.506Z,1020.09
2023-03-20T01:12:50.819Z,1020.06
2023-03-20T01:13:50.804Z,1020.04
2023-03-20T01:14:50.795Z,1020.08
2023-03-20T01:15:50.809Z,1020.06
2023-03-20T01:16:50.848Z,1020.05
2023-03-20T01:17:50.801Z,1020.05
2023-03-20T01:18:50.807Z,1020.04
2023-03-20T01:19:50.804Z,1020.05
2023-03-20T01:20:50.805Z,1020.04
2023-03-20T01:21:50.846Z,1020.06
2023-03-20T01:22:50.809Z,1020.08
2023-03-20T01:23:50.798Z,1020.1
2023-03-20T01:24:50.805Z,1020.09
2023-03-20T01:25:50.806Z,1020.06
2023-03-20T01:26:50.832Z,1020.11
2023-03-20T01:27:50.806Z,1020.08
2023-03-20T01:28:50.818Z,1020.12
2023-03-20T01:29:50.802Z,1020.1
2023-03-20T01:30:50.804Z,1020.1
2023-03-20T01:31:50.913Z,1020.14
2023-03-20T01:32:50.811Z,1020.1
2023-03-20T01:33:50.805Z,1020.15
2023-03-20T01:34:50.802Z,1020.15
2023-03-20T01:35:50.853Z,1020.17
2023-03-20T01:36:50.851Z,1020.14
2023-03-20T01:37:50.798Z,1020.13
2023-03-20T01:38:50.800Z,1020.16
2023-03-20T01:39:50.808Z,1020.15
2023-03-20T01:40:50.800Z,1020.17
2023-03-20T01:41:50.830Z,1020.17
2023-03-20T01:42:50.798Z,1020.15
2023-03-20T01:43:50.798Z,1020.13
2023-03-20T01:44:50.800Z,1020.18
2023-03-20T01:45:50.864Z,1020.19
2023-03-20T01:46:50.819Z,1020.19
2023-03-20T01:47:50.801Z,1020.18
2023-03-20T01:48:50.816Z,1020.18
2023-03-20T01:49:50.799Z,1020.14
2023-03-20T01:50:50.794Z,1020.19
2023-03-20T01:51:50.870Z,1020.14
2023-03-20T01:52:50.799Z,1020.17
2023-03-20T01:53:50.805Z,1020.17
2023-03-20T01:54:50.818Z,1020.15
2023-03-20T01:55:50.802Z,1020.14
2023-03-20T01:56:50.827Z,1020.15
2023-03-20T01:57:50.828Z,1020.11
2023-03-20T01:58:50.800Z,1020.15
2023-03-20T01:59:50.815Z,1020.13
2023-03-20T02:00:50.892Z,1020.16
2023-03-20T02:01:50.808Z,1020.15
2023-03-20T02:02:50.810Z,1020.14
2023-03-20T02:03:50.800Z,1020.14
2023-03-20T02:04:50.868Z,1020.11
2023-03-20T02:05:50.813Z,1020.13
2023-03-20T02:06:50.823Z,1020.15
2023-03-20T02:07:50.800Z,1020.15
2023-03-20T02:08:50.801Z,1020.15
2023-03-20T02:09:50.808Z,1020.1
2023-03-20T02:10:50.795Z,1020.14
2023-03-20T02:11:50.813Z,1020.13
2023-03-20T02:12:50.791Z,1020.11
2023-03-20T02:13:50.793Z,1020.1
2023-03-20T02:14:50.803Z,1020.11
2023-03-20T02:15:50.801Z,1020.11
2023-03-20T02:16:50.872Z,1020.06
2023-03-20T02:17:50.792Z,1020.05
2023-03-20T02:18:50.794Z,1020.06
2023-03-20T02:19:50.810Z,1020.08
2023-03-20T02:20:50.800Z,1019.99
2023-03-20T02:21:50.819Z,1020.01
2023-03-20T02:22:50.826Z,1020.01
2023-03-20T02:23:50.800Z,1019.99
2023-03-20T02:24:50.807Z,1019.96
2023-03-20T02:25:50.798Z,1019.99
2023-03-20T02:26:50.830Z,1019.99
2023-03-20T02:27:50.794Z,1019.99
2023-03-20T02:28:50.787Z,1020
2023-03-20T02:29:50.819Z,1020.03
2023-03-20T02:30:50.855Z,1020.01
2023-03-20T02:31:50.816Z,1020.01
2023-03-20T02:32:50.860Z,1020.03
2023-03-20T02:33:50.802Z,1020.08
2023-03-20T02:34:50.791Z,1020.01
2023-03-20T02:38:50.797Z,1019.99
2023-03-20T02:39:50.788Z,1020.02
2023-03-20T02:40:50.794Z,1020.03
2023-03-20T02:41:50.850Z,1019.97
2023-03-20T02:42:50.813Z,1020.01
2023-03-20T02:43:50.794Z,1020
2023-03-20T02:44:50.805Z,1019.98
2023-03-20T02:45:50.866Z,1020.01
2023-03-20T02:46:50.798Z,1019.97
2023-03-20T02:47:50.831Z,1019.95
2023-03-20T02:48:50.824Z,1019.98
2023-03-20T02:49:50.814Z,1019.97
2023-03-20T02:50:50.822Z,1019.97
2023-03-20T02:51:50.798Z,1019.97
2023-03-20T02:52:50.824Z,1019.96
2023-03-20T02:53:50.796Z,1019.97
2023-03-20T02:54:50.804Z,1019.94
2023-03-20T02:55:50.791Z,1019.96
2023-03-20T02:56:50.812Z,1019.97
2023-03-20T02:57:50.810Z,1019.96
2023-03-20T02:58:50.804Z,1019.97
2023-03-20T02:59:50.805Z,1019.98
2023-03-20T03:00:50.820Z,1019.99
2023-03-20T03:01:50.852Z,1019.99
2023-03-20T03:02:50.865Z,1019.96
2023-03-20T03:03:50.789Z,1019.95
2023-03-20T03:04:50.801Z,1019.98
2023-03-20T03:05:50.800Z,1019.99
2023-03-20T03:06:50.806Z,1019.96
2023-03-20T03:07:50.820Z,1020.01
2023-03-20T03:08:50.812Z,1020.01
2023-03-20T03:09:50.812Z,1019.97
2023-03-20T03:10:50.790Z,1020.01
2023-03-20T03:11:50.817Z,1019.99
2023-03-20T03:12:50.841Z,1019.99
2023-03-20T03:13:50.809Z,1020.05
2023-03-20T03:14:50.807Z,1020.03
2023-03-20T03:15:50.832Z,1020.03
2023-03-20T03:16:50.802Z,1020.09
2023-03-20T03:17:50.836Z,1020.02
2023-03-20T03:18:50.807Z,1020.03
2023-03-20T03:19:50.797Z,1020.03
2023-03-20T03:20:50.803Z,1020.04
2023-03-20T03:21:50.809Z,1020.06
2023-03-20T03:22:50.854Z,1020.04
2023-03-20T03:23:50.804Z,1020.08
2023-03-20T03:24:50.797Z,1020.03
2023-03-20T03:25:50.799Z,1020.06
2023-03-20T03:26:50.816Z,1020.02
2023-03-20T03:27:50.811Z,1020.01
2023-03-20T03:28:50.801Z,1020.03
2023-03-20T03:29:50.794Z,1020.03
2023-03-20T03:30:50.817Z,1020.01
2023-03-20T03:31:50.806Z,1020.01
2023-03-20T03:32:50.895Z,1020.08
2023-03-20T03:33:50.806Z,1020.08
2023-03-20T03:34:50.802Z,1020.11
2023-03-20T03:35:50.839Z,1020.04
2023-03-20T03:36:50.793Z,1020.06
2023-03-20T03:37:50.812Z,1020.04
2023-03-20T03:38:50.793Z,1020.03
2023-03-20T03:39:50.806Z,1020
2023-03-20T03:40:50.796Z,1020
2023-03-20T03:41:50.827Z,1019.98
2023-03-20T03:42:50.818Z,1019.99
2023-03-20T03:43:50.802Z,1020.01
2023-03-20T03:44:50.808Z,1019.99
2023-03-20T03:45:50.806Z,1019.97
2023-03-20T03:46:50.879Z,1019.99
2023-03-20T03:47:50.821Z,1020.02
2023-03-20T03:48:50.794Z,1020.02
2023-03-20T03:49:50.815Z,1020.02
2023-03-20T03:50:50.799Z,1020.1
2023-03-20T03:51:50.815Z,1020.04
2023-03-20T03:52:50.836Z,1019.97
2023-03-20T03:53:50.807Z,1020
2023-03-20T03:54:50.796Z,1019.99
2023-03-20T03:55:50.828Z,1019.99
2023-03-20T03:56:50.827Z,1019.96
2023-03-20T03:57:50.822Z,1019.98
2023-03-20T03:58:50.797Z,1019.98
2023-03-20T03:59:50.804Z,1019.97
2023-03-20T04:00:50.799Z,1019.99
2023-03-20T04:01:50.878Z,1019.98
2023-03-20T04:02:50.820Z,1019.99
2023-03-20T04:03:50.807Z,1019.99
2023-03-20T04:04:50.886Z,1019.99
2023-03-20T04:05:50.810Z,1020
2023-03-20T04:06:50.814Z,1020.01
2023-03-20T04:07:50.827Z,1020.02
2023-03-20T04:08:50.803Z,1020.02
2023-03-20T04:09:50.809Z,1020.03
2023-03-20T04:10:50.804Z,1020
2023-03-20T04:11:50.809Z,1020
2023-03-20T04:12:50.820Z,1019.99
2023-03-20T04:13:50.841Z,1020.08
2023-03-20T04:14:50.813Z,1020.02
2023-03-20T04:15:50.847Z,1020.03
2023-03-20T04:16:50.805Z,1020.01
2023-03-20T04:17:50.853Z,1020.08
2023-03-20T04:18:50.842Z,1020.01
2023-03-20T04:19:50.803Z,1020
2023-03-20T04:20:50.810Z,1020.04
2023-03-20T04:21:50.804Z,1020.01
2023-03-20T04:22:50.826Z,1020.01
2023-03-20T04:23:50.807Z,1019.99
2023-03-20T04:24:50.809Z,1020.01
2023-03-20T04:25:50.800Z,1019.98
2023-03-20T04:26:50.832Z,1019.96
2023-03-20T04:27:50.839Z,1019.97
2023-03-20T04:28:50.806Z,1020.01
2023-03-20T04:29:50.800Z,1020.03
2023-03-20T04:30:50.820Z,1020.04
2023-03-20T04:31:50.850Z,1020.04
2023-03-20T04:32:50.866Z,1020.02
2023-03-20T04:33:50.819Z,1020.02
2023-03-20T04:34:50.821Z,1020
2023-03-20T04:35:50.864Z,1019.97
2023-03-20T04:36:50.806Z,1020
2023-03-20T04:37:50.843Z,1020.01
2023-03-20T04:38:50.805Z,1020.02
2023-03-20T04:39:50.803Z,1020.03
2023-03-20T04:40:50.808Z,1020.02
2023-03-20T04:41:50.816Z,1020.04
2023-03-20T04:42:50.828Z,1020
2023-03-20T04:43:50.810Z,1020.02
2023-03-20T04:44:50.801Z,1020.03
2023-03-20T04:45:50.854Z,1020.04
2023-03-20T04:46:50.815Z,1020.06
2023-03-20T04:47:50.832Z,1020.05
2023-03-20T04:48:50.806Z,1020.09
2023-03-20T04:49:50.809Z,1020.09
2023-03-20T04:50:50.868Z,1020.12
2023-03-20T04:51:50.800Z,1020.08
2023-03-20T04:52:50.829Z,1020.06
2023-03-20T04:53:50.822Z,1020.02
2023-03-20T04:54:50.809Z,1020.06
2023-03-20T04:55:50.817Z,1020.08
2023-03-20T04:56:50.861Z,1020.11
2023-03-20T04:57:50.817Z,1020.13
2023-03-20T04:58:50.842Z,1020.17
2023-03-20T04:59:50.796Z,1020.19
2023-03-20T05:00:50.904Z,1020.16
2023-03-20T05:01:50.809Z,1020.17
2023-03-20T05:02:50.815Z,1020.17
2023-03-20T05:03:50.851Z,1020.2
2023-03-20T05:04:50.806Z,1020.18
2023-03-20T05:05:50.826Z,1020.19
2023-03-20T05:06:50.822Z,1020.19
2023-03-20T05:07:50.824Z,1020.21
2023-03-20T05:08:50.794Z,1020.21
2023-03-20T05:09:50.805Z,1020.19
2023-03-20T05:10:50.819Z,1020.17
2023-03-20T05:11:50.821Z,1020.19
2023-03-20T05:12:50.825Z,1020.21
2023-03-20T05:13:50.799Z,1020.21
2023-03-20T05:14:50.824Z,1020.18
2023-03-20T05:15:50.806Z,1020.2
2023-03-20T05:16:50.901Z,1020.23
2023-03-20T05:17:51.865Z,1020.22
2023-03-20T05:18:50.812Z,1020.26
2023-03-20T05:19:50.811Z,1020.26
2023-03-20T05:20:50.797Z,1020.28
2023-03-20T05:21:50.810Z,1020.27
2023-03-20T05:22:50.816Z,1020.28
2023-03-20T05:23:50.804Z,1020.27
2023-03-20T05:24:50.800Z,1020.27
2023-03-20T05:25:50.815Z,1020.33
2023-03-20T05:26:50.828Z,1020.33
2023-03-20T05:27:50.837Z,1020.35
2023-03-20T05:28:50.801Z,1020.41
2023-03-20T05:29:50.801Z,1020.38
2023-03-20T05:30:50.832Z,1020.38
2023-03-20T05:31:50.800Z,1020.4
2023-03-20T05:32:50.882Z,1020.41
2023-03-20T05:33:50.800Z,1020.42
2023-03-20T05:34:50.802Z,1020.4
2023-03-20T05:35:50.836Z,1020.43
2023-03-20T05:36:50.804Z,1020.42
2023-03-20T05:37:50.829Z,1020.44
2023-03-20T05:38:50.809Z,1020.44
2023-03-20T05:39:50.812Z,1020.46
2023-03-20T05:40:50.810Z,1020.47
2023-03-20T05:41:50.843Z,1020.47
2023-03-20T05:42:50.822Z,1020.47
2023-03-20T05:43:50.809Z,1020.48
2023-03-20T05:44:50.805Z,1020.5
2023-03-20T05:45:50.880Z,1020.44
2023-03-20T05:46:50.803Z,1020.46
2023-03-20T05:47:50.825Z,1020.46
2023-03-20T05:48:50.801Z,1020.42
2023-03-20T05:49:50.811Z,1020.45
2023-03-20T05:50:50.798Z,1020.42
2023-03-20T05:51:50.813Z,1020.45
2023-03-20T05:52:50.822Z,1020.48
2023-03-20T05:53:50.805Z,1020.43
2023-03-20T05:54:50.820Z,1020.49
2023-03-20T05:55:50.815Z,1020.5
2023-03-20T05:56:50.853Z,1020.47
2023-03-20T05:57:50.818Z,1020.49
2023-03-20T05:58:50.799Z,1020.5
2023-03-20T05:59:50.803Z,1020.54
2023-03-20T06:00:50.809Z,1020.55
2023-03-20T06:01:50.812Z,1020.55
2023-03-20T06:02:50.867Z,1020.55
2023-03-20T06:03:50.828Z,1020.6
2023-03-20T06:04:50.798Z,1020.55
2023-03-20T06:05:50.838Z,1020.61
2023-03-20T06:06:50.830Z,1020.61
2023-03-20T06:07:50.809Z,1020.63
2023-03-20T06:08:50.809Z,1020.63
2023-03-20T06:09:50.805Z,1020.63
2023-03-20T06:10:50.815Z,1020.62
2023-03-20T06:11:50.816Z,1020.66
2023-03-20T06:12:50.825Z,1020.66
2023-03-20T06:13:50.806Z,1020.65
2023-03-20T06:14:50.800Z,1020.66
2023-03-20T06:15:50.805Z,1020.65
2023-03-20T06:16:50.815Z,1020.66
2023-03-20T06:17:50.832Z,1020.68
2023-03-20T06:18:50.812Z,1020.62
2023-03-20T06:19:50.810Z,1020.62
2023-03-20T06:20:50.810Z,1020.64
2023-03-20T06:21:50.800Z,1020.69
2023-03-20T06:22:50.831Z,1020.65
2023-03-20T06:23:50.796Z,1020.63
2023-03-20T06:24:50.819Z,1020.66
2023-03-20T06:25:50.813Z,1020.69
2023-03-20T06:26:50.822Z,1020.71
2023-03-20T06:27:50.813Z,1020.71
2023-03-20T06:28:50.808Z,1020.7
2023-03-20T06:29:50.809Z,1020.73
2023-03-20T06:30:50.842Z,1020.74
2023-03-20T06:31:50.800Z,1020.77
2023-03-20T06:32:50.884Z,1020.78
2023-03-20T06:33:50.814Z,1020.77
2023-03-20T06:34:50.804Z,1020.77
2023-03-20T06:35:50.825Z,1020.82
2023-03-20T06:36:50.812Z,1020.78
2023-03-20T06:37:50.830Z,1020.79
2023-03-20T06:38:50.793Z,1020.77
2023-03-20T06:39:50.797Z,1020.75
2023-03-20T06:40:50.810Z,1020.8
2023-03-20T06:41:50.836Z,1020.83
2023-03-20T06:42:50.832Z,1020.83
2023-03-20T06:43:50.799Z,1020.87
2023-03-20T06:44:50.808Z,1020.81
2023-03-20T06:45:50.807Z,1020.8
2023-03-20T06:46:50.858Z,1020.81
2023-03-20T06:47:50.834Z,1020.85
2023-03-20T06:48:50.798Z,1020.87
2023-03-20T06:49:50.802Z,1020.84
2023-03-20T06:50:50.805Z,1020.81
2023-03-20T06:51:50.809Z,1020.79
2023-03-20T06:52:50.822Z,1020.83
2023-03-20T06:53:50.804Z,1020.83
2023-03-20T06:54:50.789Z,1020.81
2023-03-20T06:55:50.830Z,1020.82
2023-03-20T06:56:50.824Z,1020.84
2023-03-20T06:57:50.833Z,1020.85
2023-03-20T06:58:50.796Z,1020.82
2023-03-20T06:59:50.812Z,1020.86
2023-03-20T07:00:50.794Z,1020.81
2023-03-20T07:01:50.894Z,1020.86
2023-03-20T07:02:50.835Z,1020.89
2023-03-20T07:03:50.804Z,1020.9
2023-03-20T07:04:50.879Z,1020.86
2023-03-20T07:05:50.805Z,1020.86
2023-03-20T07:06:50.788Z,1020.88
2023-03-20T07:07:50.820Z,1020.91
2023-03-20T07:08:50.812Z,1020.91
2023-03-20T07:09:50.792Z,1020.89
2023-03-20T07:10:50.808Z,1020.86
2023-03-20T07:11:50.808Z,1020.83
2023-03-20T07:12:50.833Z,1020.87
2023-03-20T07:13:50.805Z,1020.86
2023-03-20T07:14:50.797Z,1020.86
2023-03-20T07:16:03.698Z,1020.9
2023-03-20T07:16:50.868Z,1020.89
2023-03-20T07:17:50.824Z,1020.9
2023-03-20T07:18:50.807Z,1020.9
2023-03-20T07:19:50.812Z,1020.87
2023-03-20T07:20:50.801Z,1020.85
2023-03-20T07:21:50.804Z,1020.84
2023-03-20T07:22:50.821Z,1020.89
2023-03-20T07:23:50.803Z,1020.89
2023-03-20T07:24:50.800Z,1020.88
2023-03-20T07:25:50.804Z,1020.9
2023-03-20T07:26:50.838Z,1020.91
2023-03-20T07:27:50.903Z,1020.89
2023-03-20T07:28:50.813Z,1020.93
2023-03-20T07:29:50.815Z,1020.9
2023-03-20T07:30:50.819Z,1020.98
2023-03-20T07:31:50.819Z,1020.94
2023-03-20T07:32:50.872Z,1020.92
2023-03-20T07:33:50.823Z,1020.91
2023-03-20T07:34:50.801Z,1020.91
2023-03-20T07:35:50.846Z,1020.86
2023-03-20T07:36:50.812Z,1020.92
2023-03-20T07:37:50.820Z,1020.95
2023-03-20T07:38:50.843Z,1020.94
2023-03-20T07:39:50.800Z,1020.88
2023-03-20T07:40:50.809Z,1020.91
2023-03-20T07:41:50.808Z,1020.88
2023-03-20T07:42:50.807Z,1020.82
2023-03-20T07:43:50.804Z,1020.84
2023-03-20T07:44:50.791Z,1020.88
2023-03-20T07:45:50.817Z,1020.81
2023-03-20T07:46:50.816Z,1020.87
2023-03-20T07:47:50.993Z,1020.88
2023-03-20T07:48:50.798Z,1020.86
2023-03-20T07:49:50.800Z,1020.85
2023-03-20T07:50:50.810Z,1020.89
2023-03-20T07:51:50.807Z,1020.94
2023-03-20T07:52:50.819Z,1020.85
2023-03-20T07:53:50.799Z,1020.91
2023-03-20T07:54:50.798Z,1020.92
2023-03-20T07:55:50.802Z,1020.88
2023-03-20T07:56:50.990Z,1020.9
2023-03-20T07:57:50.814Z,1020.92
2023-03-20T07:58:50.797Z,1020.89
2023-03-20T07:59:50.806Z,1020.91
2023-03-20T08:00:50.794Z,1020.96
2023-03-20T08:01:50.801Z,1020.93
2023-03-20T08:02:50.990Z,1020.91
2023-03-20T08:03:51.036Z,1020.93
2023-03-20T08:04:50.806Z,1020.94
2023-03-20T08:05:50.801Z,1020.92
2023-03-20T08:06:51.212Z,1020.93
2023-03-20T08:07:50.827Z,1020.91
2023-03-20T08:08:50.791Z,1020.91
2023-03-20T08:09:50.803Z,1020.92
2023-03-20T08:10:50.802Z,1020.88
2023-03-20T08:11:50.813Z,1020.93
2023-03-20T08:12:50.828Z,1020.87
2023-03-20T08:13:50.797Z,1020.86
2023-03-20T08:14:50.804Z,1020.87
2023-03-20T08:15:50.790Z,1020.85
2023-03-20T08:17:06.094Z,1020.89
2023-03-20T08:17:50.822Z,1020.88
2023-03-20T08:18:50.822Z,1020.89
2023-03-20T08:19:50.803Z,1020.9
2023-03-20T08:20:50.816Z,1020.88
2023-03-20T08:21:50.820Z,1020.93
2023-03-20T08:22:50.813Z,1020.85
2023-03-20T08:23:50.794Z,1020.87
2023-03-20T08:24:50.808Z,1020.9
2023-03-20T08:25:50.816Z,1020.84
2023-03-20T08:26:50.813Z,1020.82
2023-03-20T08:27:50.817Z,1020.84
2023-03-20T08:28:51.392Z,1020.85
2023-03-20T08:29:50.798Z,1020.81
2023-03-20T08:30:50.841Z,1020.81
2023-03-20T08:31:50.805Z,1020.84
2023-03-20T08:32:50.882Z,1020.82
2023-03-20T08:33:50.826Z,1020.83
2023-03-20T08:34:50.808Z,1020.81
2023-03-20T08:35:51.242Z,1020.81
2023-03-20T08:36:50.800Z,1020.73
2023-03-20T08:37:50.825Z,1020.77
2023-03-20T08:38:50.800Z,1020.79
2023-03-20T08:39:50.797Z,1020.74
2023-03-20T08:40:50.811Z,1020.82
2023-03-20T08:41:50.822Z,1020.77
2023-03-20T08:42:50.838Z,1020.75
2023-03-20T08:43:50.803Z,1020.79
2023-03-20T08:44:50.814Z,1020.85
2023-03-20T08:45:50.842Z,1020.81
2023-03-20T08:46:50.822Z,1020.85
2023-03-20T08:47:50.818Z,1020.9
2023-03-20T08:48:50.828Z,1020.88
2023-03-20T08:49:50.812Z,1020.9
2023-03-20T08:50:50.816Z,1020.92
2023-03-20T08:51:50.799Z,1020.96
2023-03-20T08:52:50.833Z,1020.91
2023-03-20T08:53:50.807Z,1020.97
2023-03-20T08:54:50.797Z,1020.96
2023-03-20T08:55:50.814Z,1020.95
2023-03-20T08:56:50.825Z,1021.04
2023-03-20T08:57:50.839Z,1020.98
2023-03-20T08:58:50.804Z,1020.95
2023-03-20T08:59:50.803Z,1021.06
2023-03-20T09:00:50.798Z,1021.01
2023-03-20T09:01:50.894Z,1021.03
2023-03-20T09:02:50.969Z,1021.07
2023-03-20T09:03:50.807Z,1021.05
2023-03-20T09:04:50.796Z,1021.04
2023-03-20T09:05:50.810Z,1021.08
2023-03-20T09:06:50.801Z,1021.11
2023-03-20T09:07:50.813Z,1021.03
2023-03-20T09:08:50.808Z,1021.03
2023-03-20T09:09:50.807Z,1021.08
2023-03-20T09:10:53.202Z,1021.06
2023-03-20T09:11:50.821Z,1021.05
2023-03-20T09:12:50.806Z,1021.13
2023-03-20T09:13:50.809Z,1021.13
2023-03-20T09:14:50.797Z,1021.1
2023-03-20T09:15:50.818Z,1021.08
2023-03-20T09:16:50.785Z,1021.08
2023-03-20T09:17:50.814Z,1021.1
2023-03-20T09:18:50.792Z,1021.06
2023-03-20T09:19:50.803Z,1021.07
2023-03-20T09:20:50.796Z,1021.02
2023-03-20T09:21:50.795Z,1021.04
2023-03-20T09:22:50.824Z,1021.08
2023-03-20T09:23:50.802Z,1021.06
2023-03-20T09:24:50.800Z,1021.12
2023-03-20T09:25:50.807Z,1021.2
2023-03-20T09:26:50.810Z,1021.14
2023-03-20T09:27:50.812Z,1021.1
2023-03-20T09:28:50.807Z,1021.13
2023-03-20T09:29:50.803Z,1021.19
2023-03-20T09:30:50.877Z,1021.16
2023-03-20T09:31:50.795Z,1021.18
2023-03-20T09:32:50.819Z,1021.25
2023-03-20T09:33:50.811Z,1021.24
2023-03-20T09:34:50.793Z,1021.24
2023-03-20T09:35:50.819Z,1021.29
2023-03-20T09:36:50.800Z,1021.24
2023-03-20T09:37:50.813Z,1021.21
2023-03-20T09:38:50.801Z,1021.31
2023-03-20T09:39:50.799Z,1021.26
2023-03-20T09:40:50.794Z,1021.26
2023-03-20T09:41:57.077Z,1021.3
2023-03-20T09:42:50.807Z,1021.28
2023-03-20T09:43:50.806Z,1021.27
2023-03-20T09:44:50.798Z,1021.24
2023-03-20T09:45:50.796Z,1021.24
2023-03-20T09:46:50.853Z,1021.3
2023-03-20T09:47:50.986Z,1021.21
2023-03-20T09:48:53.132Z,1021.22
2023-03-20T09:49:50.798Z,1021.26
2023-03-20T09:50:50.803Z,1021.26
2023-03-20T09:51:50.791Z,1021.29
2023-03-20T09:52:50.834Z,1021.22
2023-03-20T09:53:50.799Z,1021.33
2023-03-20T09:54:54.048Z,1021.35
2023-03-20T09:55:50.824Z,1021.31
2023-03-20T09:56:50.820Z,1021.33
2023-03-20T09:57:50.814Z,1021.37
2023-03-20T09:58:50.789Z,1021.37
2023-03-20T09:59:50.802Z,1021.38
2023-03-20T10:00:50.794Z,1021.3
2023-03-20T10:01:50.877Z,1021.34
2023-03-20T10:02:50.833Z,1021.28
2023-03-20T10:03:50.792Z,1021.29
2023-03-20T10:04:50.872Z,1021.26
2023-03-20T10:05:50.802Z,1021.21
2023-03-20T10:06:50.801Z,1021.18
2023-03-20T10:07:50.820Z,1021.2
2023-03-20T10:08:50.799Z,1021.2
2023-03-20T10:09:50.791Z,1021.1
2023-03-20T10:10:50.808Z,1021.07
2023-03-20T10:11:50.826Z,1021.02
2023-03-20T10:12:50.818Z,1021.01
2023-03-20T10:13:50.792Z,1020.93
2023-03-20T10:14:50.803Z,1020.98
2023-03-20T10:15:50.824Z,1020.96
2023-03-20T10:16:50.792Z,1020.88
2023-03-20T10:17:50.824Z,1020.87
2023-03-20T10:18:50.800Z,1020.87
2023-03-20T10:19:50.796Z,1020.85
2023-03-20T10:20:50.992Z,1020.88
2023-03-20T10:21:50.797Z,1020.82
2023-03-20T10:22:50.812Z,1020.82
2023-03-20T10:23:50.803Z,1020.82
2023-03-20T10:24:50.794Z,1020.77
2023-03-20T10:25:50.809Z,1020.77
2023-03-20T10:26:50.826Z,1020.8
2023-03-20T10:27:50.805Z,1020.71
2023-03-20T10:28:50.805Z,1020.7
2023-03-20T10:29:50.794Z,1020.67
2023-03-20T10:30:50.794Z,1020.7
2023-03-20T10:31:50.931Z,1020.63
2023-03-20T10:32:50.860Z,1020.65
2023-03-20T10:33:50.795Z,1020.66
2023-03-20T10:34:50.785Z,1020.65
2023-03-20T10:35:50.833Z,1020.65
2023-03-20T10:36:50.807Z,1020.66
2023-03-20T10:37:50.811Z,1020.65
2023-03-20T10:38:50.794Z,1020.71
2023-03-20T10:39:50.789Z,1020.66
2023-03-20T10:40:50.797Z,1020.6
2023-03-20T10:41:50.820Z,1020.63
2023-03-20T10:42:50.839Z,1020.65
2023-03-20T10:43:50.811Z,1020.7
2023-03-20T10:44:50.799Z,1020.59
2023-03-20T10:45:50.804Z,1020.69
2023-03-20T10:46:50.921Z,1020.61
2023-03-20T10:47:50.836Z,1020.64
2023-03-20T10:48:50.796Z,1020.66
2023-03-20T10:49:51.831Z,1020.57
2023-03-20T10:50:50.806Z,1020.54
2023-03-20T10:51:50.794Z,1020.56
2023-03-20T10:52:50.815Z,1020.56
2023-03-20T10:53:50.804Z,1020.57
2023-03-20T10:54:50.801Z,1020.56
2023-03-20T10:55:50.797Z,1020.49
2023-03-20T10:56:51.024Z,1020.49
2023-03-20T10:57:50.810Z,1020.55
2023-03-20T10:58:50.794Z,1020.57
2023-03-20T10:59:50.795Z,1020.49
2023-03-20T11:00:50.887Z,1020.48
2023-03-20T11:01:50.797Z,1020.45
2023-03-20T11:02:50.830Z,1020.44
2023-03-20T11:03:50.910Z,1020.45
2023-03-20T11:04:50.810Z,1020.45
2023-03-20T11:06:08.317Z,1020.45
2023-03-20T11:06:50.797Z,1020.48
2023-03-20T11:07:50.815Z,1020.61
2023-03-20T11:08:50.823Z,1020.61
2023-03-20T11:09:50.800Z,1020.51
2023-03-20T11:10:50.803Z,1020.46
2023-03-20T11:11:50.838Z,1020.54
2023-03-20T11:12:50.813Z,1020.59
2023-03-20T11:13:50.803Z,1020.62
2023-03-20T11:14:50.812Z,1020.59
2023-03-20T11:15:50.807Z,1020.61
2023-03-20T11:16:50.890Z,1020.68
2023-03-20T11:17:50.834Z,1020.66
2023-03-20T11:18:50.796Z,1020.78
2023-03-20T11:19:50.808Z,1020.77
2023-03-20T11:20:50.807Z,1020.81
2023-03-20T11:21:50.810Z,1020.84
2023-03-20T11:22:50.818Z,1020.8
2023-03-20T11:23:50.803Z,1020.79
2023-03-20T11:24:50.800Z,1020.78
2023-03-20T11:25:50.809Z,1020.78
2023-03-20T11:26:50.833Z,1020.77
2023-03-20T11:27:50.825Z,1020.79
2023-03-20T11:28:50.803Z,1020.84
2023-03-20T11:29:50.813Z,1020.81
2023-03-20T11:31:03.997Z,1020.77
2023-03-20T11:31:50.910Z,1020.8
2023-03-20T11:32:50.883Z,1020.8
2023-03-20T11:33:50.805Z,1020.79
2023-03-20T11:34:50.799Z,1020.81
2023-03-20T11:35:50.831Z,1020.78
2023-03-20T11:37:02.542Z,1020.68
2023-03-20T11:37:50.812Z,1020.72
2023-03-20T11:38:50.797Z,1020.73
2023-03-20T11:39:50.798Z,1020.75
2023-03-20T11:40:50.813Z,1020.77
2023-03-20T11:41:50.827Z,1020.75
2023-03-20T11:42:50.815Z,1020.74
2023-03-20T11:43:50.804Z,1020.69
2023-03-20T11:44:50.800Z,1020.7
2023-03-20T11:45:50.885Z,1020.69
2023-03-20T11:46:50.793Z,1020.69
2023-03-20T11:47:50.829Z,1020.7
2023-03-20T11:48:50.796Z,1020.67
2023-03-20T11:49:50.790Z,1020.67
2023-03-20T11:50:50.793Z,1020.67
2023-03-20T11:51:50.797Z,1020.62
2023-03-20T11:52:50.812Z,1020.61
2023-03-20T11:53:50.803Z,1020.54
2023-03-20T11:54:50.815Z,1020.48
2023-03-20T11:55:50.810Z,1020.52
2023-03-20T11:56:50.822Z,1020.51
2023-03-20T11:57:50.829Z,1020.52
2023-03-20T11:58:50.804Z,1020.58
2023-03-20T11:59:50.796Z,1020.56
2023-03-20T12:00:50.804Z,1020.56
2023-03-20T12:01:50.798Z,1020.46
2023-03-20T12:02:50.924Z,1020.48
2023-03-20T12:03:50.830Z,1020.44
2023-03-20T12:04:50.800Z,1020.42
2023-03-20T12:05:50.806Z,1020.41
2023-03-20T12:06:50.802Z,1020.37
2023-03-20T12:07:50.822Z,1020.33
2023-03-20T12:08:50.811Z,1020.33
2023-03-20T12:09:50.798Z,1020.32
2023-03-20T12:10:50.801Z,1020.23
2023-03-20T12:11:50.826Z,1020.22